Time;durP1;ratioP1;P1;durP2;ratioP2;P2;SDS_P1;SDS_P2;PMS_P1;PMS_P2;Temp;Humidity;BMP_temperature;BMP_pressure;BME280_temperature;BME280_humidity;BME280_pressure;Samples;Min_cycle;Max_cycle;Signal;HPM_P1;HPM_P2
2023/09/06 00:03:32;;;;;;;6.07;5.47;;;11.10;99.90;;;;;;8242561;28;20197;-60
2023/09/06 00:07:33;;;;;;;6.57;5.43;;;11.10;99.90;;;;;;8255831;28;20281;-60
2023/09/06 00:11:34;;;;;;;6.37;5.77;;;11.10;99.90;;;;;;8248182;28;20219;-60
2023/09/06 00:15:38;;;;;;;6.77;5.63;;;11.10;99.90;;;;;;8246307;28;20221;-61
2023/09/06 00:19:38;;;;;;;7.00;6.30;;;11.00;99.90;;;;;;8249557;28;20289;-62
2023/09/06 00:23:40;;;;;;;6.07;5.40;;;11.00;99.90;;;;;;8261391;28;20205;-62
2023/09/06 00:27:41;;;;;;;8.20;6.20;;;11.00;99.90;;;;;;8255625;28;20197;-62
2023/09/06 00:31:42;;;;;;;6.10;5.50;;;10.90;99.90;;;;;;8243751;28;20194;-63
2023/09/06 00:35:43;;;;;;;6.00;5.40;;;10.90;99.90;;;;;;8242575;28;20214;-63
2023/09/06 00:39:45;;;;;;;6.20;5.50;;;10.80;99.90;;;;;;8250210;28;20195;-62
2023/09/06 00:43:46;;;;;;;7.73;5.73;;;10.80;99.90;;;;;;8242652;28;20194;-62
2023/09/06 00:47:47;;;;;;;6.67;5.67;;;10.70;99.90;;;;;;8248352;28;20196;-62
2023/09/06 00:51:48;;;;;;;7.53;5.83;;;10.70;99.90;;;;;;8242785;28;20194;-62
2023/09/06 00:55:49;;;;;;;7.90;6.20;;;10.70;99.90;;;;;;8255343;28;20217;-62
2023/09/06 00:59:50;;;;;;;9.20;6.53;;;10.60;99.90;;;;;;8256665;28;20283;-62
2023/09/06 01:03:51;;;;;;;7.97;6.50;;;10.60;99.90;;;;;;8241711;28;20268;-63
2023/09/06 01:07:57;;;;;;;7.73;6.20;;;10.60;99.90;;;;;;8240090;28;20202;-63
2023/09/06 01:11:59;;;;;;;6.97;6.20;;;10.50;99.90;;;;;;8247394;28;20212;-63
2023/09/06 01:15:59;;;;;;;7.50;6.13;;;10.50;99.90;;;;;;8243217;28;20283;-63
2023/09/06 01:20:15;;;;;;;7.17;6.07;;;10.50;99.90;;;;;;8239505;28;20219;-62
2023/09/06 01:24:17;;;;;;;7.37;6.10;;;10.40;99.90;;;;;;8253917;28;20204;-62
2023/09/06 01:28:19;;;;;;;7.60;6.33;;;10.40;99.90;;;;;;8263184;28;20202;-62
2023/09/06 01:32:19;;;;;;;8.10;6.47;;;10.40;99.90;;;;;;8239837;28;20206;-60
2023/09/06 01:36:20;;;;;;;7.60;6.37;;;10.30;99.90;;;;;;8254716;28;20216;-59
2023/09/06 01:40:21;;;;;;;8.63;6.83;;;10.30;99.90;;;;;;8245948;28;20216;-60
2023/09/06 01:44:22;;;;;;;7.47;6.67;;;10.30;99.90;;;;;;8241898;28;20195;-60
2023/09/06 01:48:23;;;;;;;8.67;7.13;;;10.20;99.90;;;;;;8254482;28;20243;-62
2023/09/06 01:52:24;;;;;;;10.07;7.70;;;10.20;99.90;;;;;;8255559;28;20196;-60
2023/09/06 01:56:24;;;;;;;10.23;7.27;;;10.20;99.90;;;;;;8245796;28;20431;-62
2023/09/06 02:00:29;;;;;;;9.60;7.23;;;10.30;99.90;;;;;;8254164;28;20262;-61
2023/09/06 02:04:30;;;;;;;11.30;7.63;;;10.30;99.90;;;;;;8248310;28;20228;-61
2023/09/06 02:08:32;;;;;;;7.83;6.83;;;10.20;99.90;;;;;;8250924;28;20223;-60
2023/09/06 02:12:33;;;;;;;7.77;6.77;;;10.20;99.90;;;;;;8238181;28;20295;-61
2023/09/06 02:16:34;;;;;;;7.30;6.23;;;10.10;99.90;;;;;;8257115;28;20218;-60
2023/09/06 02:20:35;;;;;;;8.00;6.47;;;10.00;99.90;;;;;;8256886;28;20197;-60
2023/09/06 02:24:39;;;;;;;6.80;6.10;;;10.00;99.90;;;;;;8257234;28;20210;-59
2023/09/06 02:28:40;;;;;;;7.63;5.90;;;10.00;99.90;;;;;;8247235;28;20197;-63
2023/09/06 02:32:40;;;;;;;6.63;5.93;;;9.90;99.90;;;;;;8246759;28;20196;-60
2023/09/06 02:36:41;;;;;;;7.00;5.97;;;9.90;99.90;;;;;;8248734;28;20207;-60
2023/09/06 02:40:42;;;;;;;7.73;6.47;;;9.90;99.90;;;;;;8249655;28;20187;-62
2023/09/06 02:44:43;;;;;;;8.93;6.73;;;9.80;99.90;;;;;;8250951;28;20196;-63
2023/09/06 02:48:46;;;;;;;7.47;6.57;;;9.80;99.90;;;;;;8255060;28;20192;-63
2023/09/06 02:52:47;;;;;;;8.70;6.47;;;9.80;99.90;;;;;;8261915;28;20258;-63
2023/09/06 02:56:48;;;;;;;7.73;6.60;;;9.80;99.90;;;;;;8247277;28;20215;-62
2023/09/06 03:00:49;;;;;;;6.53;5.90;;;9.70;99.90;;;;;;8250755;28;20188;-62
2023/09/06 03:04:55;;;;;;;8.37;7.03;;;9.70;99.90;;;;;;8258617;28;20203;-62
2023/09/06 03:08:56;;;;;;;7.33;6.30;;;9.70;99.90;;;;;;8260058;28;20195;-63
2023/09/06 03:12:57;;;;;;;7.70;6.50;;;9.60;99.90;;;;;;8256576;28;20188;-62
2023/09/06 03:17:08;;;;;;;6.53;5.83;;;9.60;99.90;;;;;;8242168;28;20637;-63
2023/09/06 03:21:09;;;;;;;7.37;6.47;;;9.60;99.90;;;;;;8240985;28;20254;-62
2023/09/06 03:25:09;;;;;;;6.63;5.80;;;9.60;99.90;;;;;;8251290;28;20194;-62
2023/09/06 03:29:10;;;;;;;6.67;6.00;;;9.60;99.90;;;;;;8256451;28;20222;-63
2023/09/06 03:33:11;;;;;;;7.13;5.90;;;9.50;99.90;;;;;;8261195;28;20192;-63
2023/09/06 03:37:18;;;;;;;7.20;6.10;;;9.50;99.90;;;;;;8243977;28;20262;-63
2023/09/06 03:41:19;;;;;;;7.17;6.03;;;9.40;99.90;;;;;;8259513;28;20180;-63
2023/09/06 03:45:21;;;;;;;6.70;5.83;;;9.40;99.90;;;;;;8258228;28;20198;-63
2023/09/06 03:49:23;;;;;;;5.70;5.20;;;9.40;99.90;;;;;;8245981;28;20195;-63
2023/09/06 03:53:27;;;;;;;6.47;5.87;;;9.40;99.90;;;;;;8261025;28;20212;-63
2023/09/06 03:57:28;;;;;;;7.67;6.03;;;9.40;99.90;;;;;;8247418;28;20279;-62
2023/09/06 04:01:29;;;;;;;8.17;6.23;;;9.30;99.90;;;;;;8258240;28;20202;-62
2023/09/06 04:05:30;;;;;;;7.20;6.50;;;9.30;99.90;;;;;;8259066;28;20205;-63
2023/09/06 04:09:37;;;;;;;6.90;6.17;;;9.30;99.90;;;;;;8243550;28;20213;-64
2023/09/06 04:13:39;;;;;;;6.97;6.27;;;9.40;99.90;;;;;;8247134;28;20218;-63
2023/09/06 04:17:43;;;;;;;6.83;6.13;;;9.40;99.90;;;;;;8243593;28;20286;-63
2023/09/06 04:21:47;;;;;;;7.27;5.83;;;9.30;99.90;;;;;;8257218;28;20192;-63
2023/09/06 04:25:48;;;;;;;6.10;5.50;;;9.30;99.90;;;;;;8265259;28;20298;-63
2023/09/06 04:29:49;;;;;;;8.37;6.03;;;9.30;99.90;;;;;;8241253;28;20191;-63
2023/09/06 04:33:50;;;;;;;6.87;6.10;;;9.30;99.90;;;;;;8247057;28;20211;-63
2023/09/06 04:37:50;;;;;;;6.80;6.10;;;9.40;99.90;;;;;;8258100;28;20433;-63
2023/09/06 04:41:51;;;;;;;8.10;5.63;;;9.40;99.90;;;;;;8242732;28;20196;-63
2023/09/06 04:45:52;;;;;;;6.67;5.53;;;9.50;99.90;;;;;;8240211;28;20241;-62
2023/09/06 04:49:53;;;;;;;6.37;5.77;;;9.50;99.90;;;;;;8245836;28;20191;-63
2023/09/06 04:53:54;;;;;;;5.93;5.33;;;9.60;99.90;;;;;;8248466;28;20211;-63
2023/09/06 04:57:54;;;;;;;5.90;5.30;;;9.70;99.90;;;;;;8255820;28;20219;-63
2023/09/06 05:01:55;;;;;;;5.77;5.27;;;9.80;99.90;;;;;;8240697;28;20219;-63
2023/09/06 05:05:56;;;;;;;5.70;5.07;;;9.90;99.90;;;;;;8254822;28;20195;-63
2023/09/06 05:09:58;;;;;;;6.30;5.57;;;10.00;99.90;;;;;;8252103;28;20211;-63
2023/09/06 05:13:58;;;;;;;6.37;5.70;;;10.20;99.90;;;;;;8248329;28;20212;-63
2023/09/06 05:17:59;;;;;;;6.57;5.87;;;10.40;99.90;;;;;;8257962;28;20213;-62
2023/09/06 05:22:00;;;;;;;6.20;5.60;;;10.60;99.90;;;;;;8255432;28;20261;-62
2023/09/06 05:26:01;;;;;;;8.73;6.10;;;10.80;99.90;;;;;;8257910;28;20282;-62
2023/09/06 05:30:02;;;;;;;6.50;5.90;;;10.90;99.90;;;;;;8254468;28;20186;-62
2023/09/06 05:34:03;;;;;;;7.83;7.03;;;11.10;99.90;;;;;;8256782;28;20213;-62
2023/09/06 05:38:04;;;;;;;7.70;6.90;;;11.30;99.90;;;;;;8255639;28;20227;-62
2023/09/06 05:42:05;;;;;;;7.07;6.10;;;11.50;99.90;;;;;;8256843;28;20360;-62
2023/09/06 05:46:08;;;;;;;7.53;6.73;;;11.70;99.90;;;;;;8253878;28;20186;-62
2023/09/06 05:50:09;;;;;;;9.53;8.33;;;11.90;99.90;;;;;;8252784;28;20330;-62
2023/09/06 05:54:09;;;;;;;11.37;9.57;;;12.10;99.90;;;;;;8256322;28;20203;-62
2023/09/06 05:58:10;;;;;;;10.83;9.73;;;12.30;99.90;;;;;;8245002;28;20187;-63
2023/09/06 06:02:11;;;;;;;11.97;9.40;;;12.50;99.90;;;;;;8236853;28;20606;-62
2023/09/06 06:06:16;;;;;;;11.97;10.40;;;12.80;99.90;;;;;;8245316;28;20284;-63
2023/09/06 06:10:17;;;;;;;15.17;10.83;;;13.00;99.90;;;;;;8237615;28;20257;-63
2023/09/06 06:14:17;;;;;;;12.00;9.93;;;13.20;99.90;;;;;;8247049;28;20345;-62
2023/09/06 06:18:18;;;;;;;9.53;8.53;;;13.40;99.90;;;;;;8243134;28;20183;-63
2023/09/06 06:22:19;;;;;;;11.00;9.90;;;13.70;99.90;;;;;;8253517;28;20188;-63
2023/09/06 06:26:20;;;;;;;12.63;9.40;;;13.90;99.90;;;;;;8253709;28;20211;-63
2023/09/06 06:30:20;;;;;;;9.17;8.27;;;14.20;99.90;;;;;;8255800;28;20196;-64
2023/09/06 06:34:21;;;;;;;9.67;8.67;;;14.50;99.90;;;;;;8253214;28;20603;-63
2023/09/06 06:38:22;;;;;;;8.73;7.90;;;14.80;99.90;;;;;;8255877;28;20190;-63
2023/09/06 06:42:23;;;;;;;12.03;9.20;;;15.00;99.90;;;;;;8243186;28;20200;-63
2023/09/06 06:46:35;;;;;;;14.23;10.87;;;15.30;99.90;;;;;;8244513;28;20180;-63
2023/09/06 06:50:36;;;;;;;10.37;9.30;;;15.60;99.90;;;;;;8253048;28;20507;-63
2023/09/06 06:54:40;;;;;;;15.13;9.23;;;15.90;99.90;;;;;;8255402;28;20199;-63
2023/09/06 06:58:41;;;;;;;13.67;11.30;;;16.20;99.90;;;;;;8244217;28;20219;-64
2023/09/06 07:03:35;;;;;;;12.40;9.73;;;16.50;99.90;;;;;;8240771;28;20180;-64
2023/09/06 07:07:35;;;;;;;16.47;11.97;;;16.90;99.90;;;;;;8252104;28;20183;-64
2023/09/06 07:11:38;;;;;;;13.87;9.27;;;17.20;99.90;;;;;;8250762;28;20207;-63
2023/09/06 07:15:38;;;;;;;13.37;9.83;;;17.50;99.90;;;;;;8256724;28;20251;-64
2023/09/06 07:19:39;;;;;;;11.40;9.10;;;17.80;99.90;;;;;;8263232;28;20194;-63
2023/09/06 07:23:40;;;;;;;9.10;8.20;;;18.20;99.90;;;;;;8252753;28;20204;-63
2023/09/06 07:27:41;;;;;;;10.53;7.60;;;18.40;99.90;;;;;;8262806;28;20220;-62
2023/09/06 07:31:41;;;;;;;9.57;7.53;;;18.60;99.90;;;;;;8258592;28;20183;-64
2023/09/06 07:35:42;;;;;;;7.87;6.97;;;18.90;99.90;;;;;;8244151;28;20215;-63
2023/09/06 07:39:43;;;;;;;9.17;6.30;;;19.20;69.30;;;;;;8258482;28;20187;-63
2023/09/06 07:43:44;;;;;;;5.37;4.77;;;19.40;11.20;;;;;;8245721;28;20187;-63
